createdAt,value
2023-05-22T00:00:02.000Z,1006.641264
2023-05-22T00:00:32.000Z,1006.641264
2023-05-22T00:01:05.000Z,1006.7428560000001
2023-05-22T00:01:37.000Z,1006.7428560000001
2023-05-22T00:01:59.000Z,1006.8444479999999
2023-05-22T00:02:27.000Z,1006.8444479999999
2023-05-22T00:02:57.000Z,1006.8444479999999
2023-05-22T00:03:27.000Z,1006.7428560000001
2023-05-22T00:04:02.000Z,1006.8444479999999
2023-05-22T00:04:33.000Z,1006.8444479999999
2023-05-22T00:04:57.000Z,1006.7428560000001
2023-05-22T00:05:22.000Z,1006.7428560000001
2023-05-22T00:05:52.000Z,1006.7428560000001
2023-05-22T00:06:27.000Z,1006.7428560000001
2023-05-22T00:07:07.000Z,1006.94604
2023-05-22T00:07:37.000Z,1006.94604
2023-05-22T00:08:03.000Z,1006.94604
2023-05-22T00:08:32.000Z,1006.94604
2023-05-22T00:08:57.000Z,1006.8444479999999
2023-05-22T00:09:22.000Z,1006.8444479999999
2023-05-22T00:09:52.000Z,1006.8444479999999
2023-05-22T00:10:27.000Z,1006.94604
2023-05-22T00:10:57.000Z,1006.94604
2023-05-22T00:11:27.000Z,1006.7428560000001
2023-05-22T00:12:02.000Z,1006.94604
2023-05-22T00:12:33.000Z,1006.94604
2023-05-22T00:13:05.000Z,1006.7428560000001
2023-05-22T00:13:47.000Z,1006.7428560000001
2023-05-22T00:14:17.000Z,1006.8444479999999
2023-05-22T00:14:42.000Z,1006.8444479999999
2023-05-22T00:15:11.000Z,1006.8444479999999
2023-05-22T00:15:27.000Z,1006.8444479999999
2023-05-22T00:15:57.000Z,1006.8444479999999
2023-05-22T00:16:17.000Z,1006.8444479999999
2023-05-22T00:16:47.000Z,1006.8444479999999
2023-05-22T00:17:22.000Z,1006.8444479999999
2023-05-22T00:17:52.000Z,1006.8444479999999
2023-05-22T00:18:27.000Z,1006.8444479999999
2023-05-22T00:18:57.000Z,1006.8444479999999
2023-05-22T00:19:27.000Z,1006.8444479999999
2023-05-22T00:20:12.000Z,1006.8444479999999
2023-05-22T00:20:35.000Z,1006.8444479999999
2023-05-22T00:21:02.000Z,1006.7428560000001
2023-05-22T00:21:25.000Z,1006.7428560000001
2023-05-22T00:21:52.000Z,1006.7428560000001
2023-05-22T00:22:27.000Z,1006.7428560000001
2023-05-22T00:23:07.000Z,1006.7428560000001
2023-05-22T00:23:30.000Z,1006.7428560000001
2023-05-22T00:23:57.000Z,1006.8444479999999
2023-05-22T00:24:17.000Z,1006.8444479999999
2023-05-22T00:24:47.000Z,1006.8444479999999
2023-05-22T00:25:22.000Z,1006.7428560000001
2023-05-22T00:25:53.000Z,1006.7428560000001
2023-05-22T00:26:27.000Z,1006.7428560000001
2023-05-22T00:26:57.000Z,1006.7428560000001
2023-05-22T00:27:27.000Z,1006.641264
2023-05-22T00:28:02.000Z,1006.94604
2023-05-22T00:28:32.000Z,1006.94604
2023-05-22T00:29:05.000Z,1007.11536
2023-05-22T00:29:38.000Z,1007.11536
2023-05-22T00:30:02.000Z,1006.94604
2023-05-22T00:30:27.000Z,1006.94604
2023-05-22T00:30:55.000Z,1006.94604
2023-05-22T00:31:18.000Z,1006.7428560000001
2023-05-22T00:31:47.000Z,1006.7428560000001
2023-05-22T00:32:17.000Z,1006.641264
2023-05-22T00:32:52.000Z,1006.641264
2023-05-22T00:33:32.000Z,1006.7428560000001
2023-05-22T00:34:02.000Z,1006.641264
2023-05-22T00:34:27.000Z,1006.641264
2023-05-22T00:34:55.000Z,1006.641264
2023-05-22T00:35:18.000Z,1006.7428560000001
2023-05-22T00:35:47.000Z,1006.7428560000001
2023-05-22T00:36:12.000Z,1006.641264
2023-05-22T00:36:31.000Z,1006.641264
2023-05-22T00:36:57.000Z,1006.8444479999999
2023-05-22T00:37:22.000Z,1006.8444479999999
2023-05-22T00:37:52.000Z,1006.8444479999999
2023-05-22T00:38:27.000Z,1006.7428560000001
2023-05-22T00:38:57.000Z,1006.7428560000001
2023-05-22T00:39:27.000Z,1006.7428560000001
2023-05-22T00:39:47.000Z,1006.7428560000001
2023-05-22T00:40:16.000Z,1006.8444479999999
2023-05-22T00:40:47.000Z,1006.8444479999999
2023-05-22T00:41:22.000Z,1006.641264
2023-05-22T00:41:53.000Z,1006.641264
2023-05-22T00:42:27.000Z,1006.539672
2023-05-22T00:42:57.000Z,1006.539672
2023-05-22T00:43:27.000Z,1006.43808
2023-05-22T00:43:47.000Z,1006.43808
2023-05-22T00:44:17.000Z,1006.539672
2023-05-22T00:44:47.000Z,1006.539672
2023-05-22T00:45:07.000Z,1006.641264
2023-05-22T00:45:37.000Z,1006.641264
2023-05-22T00:45:59.000Z,1006.641264
2023-05-22T00:46:27.000Z,1006.641264
2023-05-22T00:46:57.000Z,1006.641264
2023-05-22T00:47:27.000Z,1006.641264
2023-05-22T00:47:47.000Z,1006.641264
2023-05-22T00:48:17.000Z,1006.539672
2023-05-22T00:48:47.000Z,1006.539672
2023-05-22T00:49:08.000Z,1006.7428560000001
2023-05-22T00:49:37.000Z,1006.7428560000001
2023-05-22T00:49:58.000Z,1006.641264
2023-05-22T00:50:27.000Z,1006.641264
2023-05-22T00:50:57.000Z,1006.641264
2023-05-22T00:51:27.000Z,1006.43808
2023-05-22T00:51:47.000Z,1006.43808
2023-05-22T00:52:17.000Z,1006.641264
2023-05-22T00:52:47.000Z,1006.641264
2023-05-22T00:53:05.000Z,1006.7428560000001
2023-05-22T00:53:37.000Z,1006.7428560000001
2023-05-22T00:53:58.000Z,1006.539672
2023-05-22T00:54:27.000Z,1006.539672
2023-05-22T00:55:07.000Z,1006.539672
2023-05-22T00:55:47.000Z,1006.539672
2023-05-22T00:56:18.000Z,1006.539672
2023-05-22T00:56:52.000Z,1006.539672
2023-05-22T00:57:22.000Z,1006.336488
2023-05-22T00:57:52.000Z,1006.336488
2023-05-22T00:58:27.000Z,1006.7428560000001
2023-05-22T00:58:57.000Z,1006.7428560000001
2023-05-22T00:59:27.000Z,1006.641264
2023-05-22T00:59:47.000Z,1006.641264
2023-05-22T01:00:16.000Z,1006.539672
2023-05-22T01:00:47.000Z,1006.539672
2023-05-22T01:01:07.000Z,1006.539672
2023-05-22T01:01:37.000Z,1006.539672
2023-05-22T01:01:58.000Z,1006.539672
2023-05-22T01:02:37.000Z,1006.539672
2023-05-22T01:03:07.000Z,1006.539672
2023-05-22T01:03:30.000Z,1006.539672
2023-05-22T01:03:57.000Z,1006.539672
2023-05-22T01:04:17.000Z,1006.539672
2023-05-22T01:04:47.000Z,1006.539672
2023-05-22T01:05:22.000Z,1006.641264
2023-05-22T01:05:52.000Z,1006.641264
2023-05-22T01:06:27.000Z,1006.7428560000001
2023-05-22T01:06:57.000Z,1006.7428560000001
2023-05-22T01:07:28.000Z,1006.8444479999999
2023-05-22T01:08:03.000Z,1006.7428560000001
2023-05-22T01:08:32.000Z,1006.7428560000001
2023-05-22T01:08:58.000Z,1006.539672
2023-05-22T01:09:22.000Z,1006.539672
2023-05-22T01:09:53.000Z,1006.539672
2023-05-22T01:10:27.000Z,1006.539672
2023-05-22T01:11:07.000Z,1006.43808
2023-05-22T01:11:30.000Z,1006.43808
2023-05-22T01:11:57.000Z,1006.539672
2023-05-22T01:12:17.000Z,1006.539672
2023-05-22T01:12:47.000Z,1006.539672
2023-05-22T01:13:22.000Z,1006.539672
2023-05-22T01:13:52.000Z,1006.539672
2023-05-22T01:14:27.000Z,1006.539672
2023-05-22T01:14:57.000Z,1006.539672
2023-05-22T01:15:27.000Z,1006.539672
2023-05-22T01:16:02.000Z,1006.43808
2023-05-22T01:16:33.000Z,1006.43808
2023-05-22T01:16:57.000Z,1006.43808
2023-05-22T01:17:22.000Z,1006.43808
2023-05-22T01:17:50.000Z,1006.43808
2023-05-22T01:18:17.000Z,1006.641264
2023-05-22T01:18:43.000Z,1006.641264
2023-05-22T01:19:07.000Z,1006.336488
2023-05-22T01:19:30.000Z,1006.336488
2023-05-22T01:19:57.000Z,1006.641264
2023-05-22T01:20:27.000Z,1006.641264
2023-05-22T01:20:57.000Z,1006.641264
2023-05-22T01:21:23.000Z,1006.539672
2023-05-22T01:21:51.000Z,1006.539672
2023-05-22T01:22:27.000Z,1006.539672
2023-05-22T01:23:07.000Z,1006.539672
2023-05-22T01:23:27.000Z,1006.539672
2023-05-22T01:24:02.000Z,1006.641264
2023-05-22T01:24:32.000Z,1006.641264
2023-05-22T01:24:57.000Z,1006.539672
2023-05-22T01:25:22.000Z,1006.539672
2023-05-22T01:25:52.000Z,1006.539672
2023-05-22T01:26:27.000Z,1006.539672
2023-05-22T01:26:57.000Z,1006.539672
2023-05-22T01:27:27.000Z,1006.336488
2023-05-22T01:28:02.000Z,1006.2348959999999
2023-05-22T01:28:32.000Z,1006.2348959999999
2023-05-22T01:28:57.000Z,1006.641264
2023-05-22T01:29:22.000Z,1006.641264
2023-05-22T01:29:52.000Z,1006.641264
2023-05-22T01:30:27.000Z,1006.336488
2023-05-22T01:30:57.000Z,1006.336488
2023-05-22T01:31:27.000Z,1006.539672
2023-05-22T01:32:02.000Z,1006.43808
2023-05-22T01:32:33.000Z,1006.43808
2023-05-22T01:32:57.000Z,1006.336488
2023-05-22T01:33:22.000Z,1006.336488
2023-05-22T01:33:52.000Z,1006.336488
2023-05-22T01:34:27.000Z,1006.43808
2023-05-22T01:34:54.000Z,1006.43808
2023-05-22T01:35:12.000Z,1006.641264
2023-05-22T01:35:47.000Z,1006.641264
2023-05-22T01:36:18.000Z,1006.539672
2023-05-22T01:37:02.000Z,1006.43808
2023-05-22T01:37:37.000Z,1006.43808
2023-05-22T01:38:02.000Z,1006.539672
2023-05-22T01:38:27.000Z,1006.539672
2023-05-22T01:38:54.000Z,1006.539672
2023-05-22T01:39:10.000Z,1006.539672
2023-05-22T01:39:47.000Z,1006.539672
2023-05-22T01:40:17.000Z,1006.539672
2023-05-22T01:40:47.000Z,1006.539672
2023-05-22T01:41:05.000Z,1006.336488
2023-05-22T01:41:37.000Z,1006.336488
2023-05-22T01:41:59.000Z,1006.539672
2023-05-22T01:42:27.000Z,1006.539672
2023-05-22T01:42:57.000Z,1006.539672
2023-05-22T01:43:27.000Z,1006.641264
2023-05-22T01:44:02.000Z,1006.43808
2023-05-22T01:44:32.000Z,1006.43808
2023-05-22T01:44:57.000Z,1006.641264
2023-05-22T01:45:18.000Z,1006.641264
2023-05-22T01:45:47.000Z,1006.641264
2023-05-22T01:46:17.000Z,1006.641264
2023-05-22T01:46:43.000Z,1006.641264
2023-05-22T01:47:07.000Z,1006.539672
2023-05-22T01:47:30.000Z,1006.539672
2023-05-22T01:47:57.000Z,1006.7428560000001
2023-05-22T01:48:17.000Z,1006.7428560000001
2023-05-22T01:48:48.000Z,1006.7428560000001
2023-05-22T01:49:22.000Z,1006.336488
2023-05-22T01:49:52.000Z,1006.336488
2023-05-22T01:50:27.000Z,1006.539672
2023-05-22T01:50:57.000Z,1006.539672
2023-05-22T01:51:27.000Z,1006.43808
2023-05-22T01:52:02.000Z,1006.539672
2023-05-22T01:52:32.000Z,1006.539672
2023-05-22T01:52:57.000Z,1006.43808
2023-05-22T01:53:22.000Z,1006.43808
2023-05-22T01:54:02.000Z,1006.641264
2023-05-22T01:54:27.000Z,1006.641264
2023-05-22T01:54:57.000Z,1006.641264
2023-05-22T01:55:27.000Z,1006.539672
2023-05-22T01:56:02.000Z,1006.641264
2023-05-22T01:56:33.000Z,1006.641264
2023-05-22T01:56:57.000Z,1006.539672
2023-05-22T01:57:23.000Z,1006.539672
2023-05-22T01:57:52.000Z,1006.539672
2023-05-22T01:58:27.000Z,1006.539672
2023-05-22T01:58:57.000Z,1006.539672
2023-05-22T01:59:27.000Z,1006.539672
2023-05-22T01:59:47.000Z,1006.539672
2023-05-22T02:00:12.000Z,1006.641264
2023-05-22T02:00:35.000Z,1006.641264
2023-05-22T02:00:59.000Z,1006.7428560000001
2023-05-22T02:01:22.000Z,1006.7428560000001
2023-05-22T02:01:52.000Z,1006.7428560000001
2023-05-22T02:02:27.000Z,1006.539672
2023-05-22T02:02:57.000Z,1006.539672
2023-05-22T02:03:27.000Z,1006.641264
2023-05-22T02:04:02.000Z,1006.539672
2023-05-22T02:04:32.000Z,1006.539672
2023-05-22T02:04:57.000Z,1006.336488
2023-05-22T02:05:22.000Z,1006.336488
2023-05-22T02:05:52.000Z,1006.336488
2023-05-22T02:06:27.000Z,1006.641264
2023-05-22T02:06:54.000Z,1006.641264
2023-05-22T02:07:18.000Z,1006.539672
2023-05-22T02:07:47.000Z,1006.539672
2023-05-22T02:08:12.000Z,1006.641264
2023-05-22T02:08:35.000Z,1006.641264
2023-05-22T02:09:00.000Z,1006.43808
2023-05-22T02:09:22.000Z,1006.43808
2023-05-22T02:09:52.000Z,1006.43808
2023-05-22T02:10:27.000Z,1006.336488
2023-05-22T02:10:57.000Z,1006.336488
2023-05-22T02:11:27.000Z,1006.641264
2023-05-22T02:11:48.000Z,1006.641264
2023-05-22T02:12:17.000Z,1006.7428560000001
2023-05-22T02:12:47.000Z,1006.7428560000001
2023-05-22T02:13:07.000Z,1006.336488
2023-05-22T02:13:37.000Z,1006.336488
2023-05-22T02:13:59.000Z,1006.539672
2023-05-22T02:14:27.000Z,1006.539672
2023-05-22T02:14:57.000Z,1006.539672
2023-05-22T02:15:27.000Z,1006.641264
2023-05-22T02:15:47.000Z,1006.641264
2023-05-22T02:16:17.000Z,1006.641264
2023-05-22T02:16:47.000Z,1006.641264
2023-05-22T02:17:23.000Z,1006.133304
2023-05-22T02:17:53.000Z,1006.133304
2023-05-22T02:18:27.000Z,1006.43808
2023-05-22T02:18:57.000Z,1006.43808
2023-05-22T02:19:27.000Z,1006.641264
2023-05-22T02:20:02.000Z,1006.336488
2023-05-22T02:20:32.000Z,1006.336488
2023-05-22T02:20:57.000Z,1006.336488
2023-05-22T02:21:22.000Z,1006.336488
2023-05-22T02:21:52.000Z,1006.336488
2023-05-22T02:22:27.000Z,1006.539672
2023-05-22T02:22:57.000Z,1006.539672
2023-05-22T02:23:27.000Z,1006.539672
2023-05-22T02:23:47.000Z,1006.539672
2023-05-22T02:24:16.000Z,1006.641264
2023-05-22T02:24:47.000Z,1006.641264
2023-05-22T02:25:07.000Z,1006.336488
2023-05-22T02:25:47.000Z,1006.336488
2023-05-22T02:26:17.000Z,1006.539672
2023-05-22T02:26:43.000Z,1006.539672
2023-05-22T02:27:07.000Z,1006.539672
2023-05-22T02:27:30.000Z,1006.539672
2023-05-22T02:27:57.000Z,1006.43808
2023-05-22T02:28:27.000Z,1006.43808
2023-05-22T02:28:47.000Z,1006.43808
2023-05-22T02:29:22.000Z,1006.641264
2023-05-22T02:29:52.000Z,1006.641264
2023-05-22T02:30:27.000Z,1006.43808
2023-05-22T02:30:57.000Z,1006.43808
2023-05-22T02:31:27.000Z,1006.43808
2023-05-22T02:32:02.000Z,1006.43808
2023-05-22T02:32:32.000Z,1006.43808
2023-05-22T02:32:57.000Z,1006.336488
2023-05-22T02:33:23.000Z,1006.336488
2023-05-22T02:33:52.000Z,1006.336488
2023-05-22T02:34:27.000Z,1006.43808
2023-05-22T02:34:57.000Z,1006.43808
2023-05-22T02:35:27.000Z,1006.2348959999999
2023-05-22T02:36:02.000Z,1006.43808
2023-05-22T02:36:32.000Z,1006.43808
2023-05-22T02:36:57.000Z,1006.336488
2023-05-22T02:37:22.000Z,1006.336488
2023-05-22T02:37:52.000Z,1006.336488
2023-05-22T02:38:27.000Z,1006.336488
2023-05-22T02:38:57.000Z,1006.336488
2023-05-22T02:39:27.000Z,1006.336488
2023-05-22T02:39:57.000Z,1006.2348959999999
2023-05-22T02:40:27.000Z,1006.2348959999999
2023-05-22T02:40:57.000Z,1006.2348959999999
2023-05-22T02:41:24.000Z,1006.2348959999999
2023-05-22T02:41:52.000Z,1006.2348959999999
2023-05-22T02:42:27.000Z,1006.2348959999999
2023-05-22T02:43:07.000Z,1006.2348959999999
2023-05-22T02:43:30.000Z,1006.2348959999999
2023-05-22T02:43:57.000Z,1006.336488
2023-05-22T02:44:32.000Z,1006.336488
2023-05-22T02:44:58.000Z,1006.43808
2023-05-22T02:45:22.000Z,1006.43808
2023-05-22T02:45:52.000Z,1006.43808
2023-05-22T02:46:27.000Z,1006.2348959999999
2023-05-22T02:46:57.000Z,1006.2348959999999
2023-05-22T02:47:27.000Z,1006.133304
2023-05-22T02:48:02.000Z,1006.2348959999999
2023-05-22T02:48:32.000Z,1006.2348959999999
2023-05-22T02:48:57.000Z,1006.336488
2023-05-22T02:49:22.000Z,1006.336488
2023-05-22T02:49:52.000Z,1006.336488
2023-05-22T02:50:27.000Z,1006.43808
2023-05-22T02:50:57.000Z,1006.43808
2023-05-22T02:51:27.000Z,1006.2348959999999
2023-05-22T02:52:02.000Z,1006.031712
2023-05-22T02:52:32.000Z,1006.031712
2023-05-22T02:53:07.000Z,1006.133304
2023-05-22T02:53:37.000Z,1006.133304
2023-05-22T02:53:59.000Z,1006.2348959999999
2023-05-22T02:54:27.000Z,1006.2348959999999
2023-05-22T02:54:57.000Z,1006.2348959999999
2023-05-22T02:55:27.000Z,1006.2348959999999
2023-05-22T02:56:02.000Z,1006.2348959999999
2023-05-22T02:56:34.000Z,1006.2348959999999
2023-05-22T02:57:02.000Z,1006.2348959999999
2023-05-22T02:57:25.000Z,1006.2348959999999
2023-05-22T02:57:52.000Z,1006.2348959999999
2023-05-22T02:58:27.000Z,1006.133304
2023-05-22T02:59:07.000Z,1006.133304
2023-05-22T02:59:33.000Z,1006.133304
2023-05-22T02:59:57.000Z,1006.031712
2023-05-22T03:00:27.000Z,1006.031712
2023-05-22T03:00:57.000Z,1006.031712
2023-05-22T03:01:23.000Z,1006.133304
2023-05-22T03:01:52.000Z,1006.133304
2023-05-22T03:02:27.000Z,1006.133304
2023-05-22T03:03:07.000Z,1005.93012
2023-05-22T03:03:27.000Z,1005.93012
2023-05-22T03:04:02.000Z,1006.031712
2023-05-22T03:04:32.000Z,1006.031712
2023-05-22T03:04:57.000Z,1006.031712
2023-05-22T03:05:22.000Z,1006.031712
2023-05-22T03:05:52.000Z,1006.031712
2023-05-22T03:06:27.000Z,1005.93012
2023-05-22T03:06:57.000Z,1005.93012
2023-05-22T03:07:27.000Z,1006.133304
2023-05-22T03:08:02.000Z,1006.2348959999999
2023-05-22T03:08:32.000Z,1006.2348959999999
2023-05-22T03:08:57.000Z,1006.133304
2023-05-22T03:09:23.000Z,1006.133304
2023-05-22T03:09:52.000Z,1006.133304
2023-05-22T03:10:27.000Z,1006.031712
2023-05-22T03:10:57.000Z,1006.031712
2023-05-22T03:11:27.000Z,1006.133304
2023-05-22T03:12:02.000Z,1006.031712
2023-05-22T03:12:32.000Z,1006.031712
2023-05-22T03:12:57.000Z,1006.2348959999999
2023-05-22T03:13:22.000Z,1006.2348959999999
2023-05-22T03:13:52.000Z,1006.2348959999999
2023-05-22T03:14:27.000Z,1006.031712
2023-05-22T03:14:57.000Z,1006.031712
2023-05-22T03:15:37.000Z,1006.031712
2023-05-22T03:16:02.000Z,1006.031712
2023-05-22T03:16:32.000Z,1006.031712
2023-05-22T03:17:05.000Z,1006.133304
2023-05-22T03:17:37.000Z,1006.133304
2023-05-22T03:17:59.000Z,1006.133304
2023-05-22T03:18:27.000Z,1006.133304
2023-05-22T03:18:57.000Z,1006.133304
2023-05-22T03:19:27.000Z,1006.133304
2023-05-22T03:20:02.000Z,1006.336488
2023-05-22T03:20:32.000Z,1006.336488
2023-05-22T03:20:57.000Z,1006.2348959999999
2023-05-22T03:21:32.000Z,1006.2348959999999
2023-05-22T03:21:52.000Z,1006.2348959999999
2023-05-22T03:22:27.000Z,1006.133304
2023-05-22T03:22:57.000Z,1006.133304
2023-05-22T03:23:27.000Z,1006.133304
2023-05-22T03:24:02.000Z,1006.2348959999999
2023-05-22T03:24:33.000Z,1006.2348959999999
2023-05-22T03:24:57.000Z,1005.93012
2023-05-22T03:25:22.000Z,1005.93012
2023-05-22T03:25:52.000Z,1005.93012
2023-05-22T03:26:27.000Z,1006.2348959999999
2023-05-22T03:26:57.000Z,1006.2348959999999
2023-05-22T03:27:37.000Z,1006.031712
2023-05-22T03:28:03.000Z,1006.031712
2023-05-22T03:28:32.000Z,1006.031712
2023-05-22T03:28:57.000Z,1005.828528
2023-05-22T03:29:22.000Z,1005.828528
2023-05-22T03:29:52.000Z,1005.828528
2023-05-22T03:30:27.000Z,1006.031712
2023-05-22T03:30:57.000Z,1006.031712
2023-05-22T03:31:27.000Z,1006.031712
2023-05-22T03:32:02.000Z,1006.133304
2023-05-22T03:32:33.000Z,1006.133304
2023-05-22T03:33:05.000Z,1006.133304
2023-05-22T03:33:37.000Z,1006.133304
2023-05-22T03:34:08.000Z,1005.93012
2023-05-22T03:34:42.000Z,1005.93012
2023-05-22T03:35:12.000Z,1005.93012
2023-05-22T03:35:47.000Z,1005.93012
2023-05-22T03:36:17.000Z,1005.93012
2023-05-22T03:36:47.000Z,1005.93012
2023-05-22T03:37:22.000Z,1006.031712
2023-05-22T03:37:52.000Z,1006.031712
2023-05-22T03:38:27.000Z,1006.031712
2023-05-22T03:38:57.000Z,1006.031712
2023-05-22T03:39:27.000Z,1006.031712
2023-05-22T03:39:57.000Z,1006.031712
2023-05-22T03:40:27.000Z,1006.031712
2023-05-22T03:40:47.000Z,1006.031712
2023-05-22T03:41:05.000Z,1005.828528
2023-05-22T03:41:37.000Z,1005.828528
2023-05-22T03:41:59.000Z,1005.93012
2023-05-22T03:42:27.000Z,1005.93012
2023-05-22T03:42:57.000Z,1005.93012
2023-05-22T03:43:27.000Z,1006.031712
2023-05-22T03:44:02.000Z,1006.031712
2023-05-22T03:44:32.000Z,1006.031712
2023-05-22T03:44:57.000Z,1006.031712
2023-05-22T03:45:22.000Z,1006.031712
2023-05-22T03:45:52.000Z,1006.031712
2023-05-22T03:46:27.000Z,1005.93012
2023-05-22T03:46:54.000Z,1005.93012
2023-05-22T03:47:18.000Z,1006.2348959999999
2023-05-22T03:47:47.000Z,1006.2348959999999
2023-05-22T03:48:12.000Z,1006.031712
2023-05-22T03:48:34.000Z,1006.031712
2023-05-22T03:49:02.000Z,1005.93012
2023-05-22T03:49:25.000Z,1005.93012
2023-05-22T03:49:52.000Z,1005.93012
2023-05-22T03:50:27.000Z,1006.031712
2023-05-22T03:51:07.000Z,1006.133304
2023-05-22T03:51:47.000Z,1006.133304
2023-05-22T03:52:18.000Z,1006.031712
2023-05-22T03:53:02.000Z,1005.93012
2023-05-22T03:53:22.000Z,1005.93012
2023-05-22T03:53:52.000Z,1005.93012
2023-05-22T03:54:27.000Z,1006.031712
2023-05-22T03:54:57.000Z,1006.031712
2023-05-22T03:55:27.000Z,1005.93012
2023-05-22T03:56:02.000Z,1006.031712
2023-05-22T03:56:32.000Z,1006.031712
2023-05-22T03:56:57.000Z,1005.828528
2023-05-22T03:57:22.000Z,1005.828528
2023-05-22T03:57:52.000Z,1005.828528
2023-05-22T03:58:27.000Z,1006.031712
2023-05-22T03:58:57.000Z,1006.031712
2023-05-22T03:59:27.000Z,1006.031712
2023-05-22T04:00:02.000Z,1005.93012
2023-05-22T04:00:32.000Z,1005.93012
2023-05-22T04:01:05.000Z,1005.93012
2023-05-22T04:01:37.000Z,1005.93012
2023-05-22T04:01:59.000Z,1005.93012
2023-05-22T04:02:27.000Z,1005.93012
2023-05-22T04:02:57.000Z,1005.93012
2023-05-22T04:03:27.000Z,1005.93012
2023-05-22T04:04:02.000Z,1005.93012
2023-05-22T04:04:42.000Z,1005.93012
2023-05-22T04:05:08.000Z,1006.031712
2023-05-22T04:05:34.000Z,1006.031712
2023-05-22T04:06:02.000Z,1005.93012
2023-05-22T04:06:27.000Z,1005.93012
2023-05-22T04:06:54.000Z,1005.93012
2023-05-22T04:07:18.000Z,1005.7269360000001
2023-05-22T04:07:47.000Z,1005.7269360000001
2023-05-22T04:08:12.000Z,1005.828528
2023-05-22T04:08:34.000Z,1005.828528
2023-05-22T04:08:59.000Z,1005.828528
2023-05-22T04:09:22.000Z,1005.828528
2023-05-22T04:09:52.000Z,1005.828528
2023-05-22T04:10:27.000Z,1005.828528
2023-05-22T04:10:57.000Z,1005.828528
2023-05-22T04:11:27.000Z,1006.031712
2023-05-22T04:12:02.000Z,1006.031712
2023-05-22T04:12:32.000Z,1006.031712
2023-05-22T04:13:05.000Z,1006.031712
2023-05-22T04:13:38.000Z,1006.031712
2023-05-22T04:14:12.000Z,1006.031712
2023-05-22T04:14:52.000Z,1006.031712
2023-05-22T04:15:18.000Z,1005.828528
2023-05-22T04:15:47.000Z,1005.828528
2023-05-22T04:16:17.000Z,1006.031712
2023-05-22T04:16:47.000Z,1006.031712
2023-05-22T04:17:22.000Z,1005.828528
2023-05-22T04:17:52.000Z,1005.828528
2023-05-22T04:18:27.000Z,1005.828528
2023-05-22T04:18:57.000Z,1005.828528
2023-05-22T04:19:27.000Z,1006.031712
2023-05-22T04:20:02.000Z,1006.031712
2023-05-22T04:20:32.000Z,1006.031712
2023-05-22T04:20:57.000Z,1006.031712
2023-05-22T04:21:22.000Z,1006.031712
2023-05-22T04:21:52.000Z,1006.031712
2023-05-22T04:22:27.000Z,1005.93012
2023-05-22T04:22:57.000Z,1005.93012
2023-05-22T04:23:27.000Z,1005.828528
2023-05-22T04:24:03.000Z,1006.031712
2023-05-22T04:24:32.000Z,1006.031712
2023-05-22T04:24:57.000Z,1006.031712
2023-05-22T04:25:22.000Z,1006.031712
2023-05-22T04:25:52.000Z,1006.031712
2023-05-22T04:26:28.000Z,1005.93012
2023-05-22T04:26:54.000Z,1005.93012
2023-05-22T04:27:12.000Z,1006.133304
2023-05-22T04:27:47.000Z,1006.133304
2023-05-22T04:28:16.000Z,1005.93012
2023-05-22T04:28:47.000Z,1005.93012
2023-05-22T04:29:22.000Z,1006.2348959999999
2023-05-22T04:29:52.000Z,1006.2348959999999
2023-05-22T04:30:27.000Z,1005.93012
2023-05-22T04:30:57.000Z,1005.93012
2023-05-22T04:31:27.000Z,1006.2348959999999
2023-05-22T04:32:02.000Z,1005.93012
2023-05-22T04:32:32.000Z,1005.93012
2023-05-22T04:32:57.000Z,1006.2348959999999
2023-05-22T04:33:23.000Z,1006.2348959999999
2023-05-22T04:33:53.000Z,1006.2348959999999
2023-05-22T04:34:27.000Z,1006.133304
2023-05-22T04:34:57.000Z,1006.133304
2023-05-22T04:35:28.000Z,1006.133304
2023-05-22T04:36:02.000Z,1006.031712
2023-05-22T04:36:32.000Z,1006.031712
2023-05-22T04:37:05.000Z,1006.031712
2023-05-22T04:37:37.000Z,1006.031712
2023-05-22T04:37:59.000Z,1006.133304
2023-05-22T04:38:27.000Z,1006.133304
2023-05-22T04:38:57.000Z,1006.133304
2023-05-22T04:39:27.000Z,1006.031712
2023-05-22T04:39:57.000Z,1006.031712
2023-05-22T04:40:27.000Z,1005.93012
2023-05-22T04:40:57.000Z,1005.93012
2023-05-22T04:41:22.000Z,1006.031712
2023-05-22T04:41:52.000Z,1006.031712
2023-05-22T04:42:27.000Z,1006.133304
2023-05-22T04:42:57.000Z,1006.133304
2023-05-22T04:43:27.000Z,1006.031712
2023-05-22T04:44:03.000Z,1006.031712
2023-05-22T04:44:33.000Z,1006.031712
2023-05-22T04:44:57.000Z,1005.828528
2023-05-22T04:45:22.000Z,1005.828528
2023-05-22T04:45:52.000Z,1005.828528
2023-05-22T04:46:27.000Z,1006.031712
2023-05-22T04:46:57.000Z,1006.031712
2023-05-22T04:47:32.000Z,1005.93012
2023-05-22T04:48:12.000Z,1006.031712
2023-05-22T04:48:32.000Z,1006.031712
2023-05-22T04:48:57.000Z,1005.93012
2023-05-22T04:49:22.000Z,1005.93012
2023-05-22T04:49:52.000Z,1005.93012
2023-05-22T04:50:27.000Z,1006.031712
2023-05-22T04:50:57.000Z,1006.031712
2023-05-22T04:51:27.000Z,1006.031712
2023-05-22T04:52:02.000Z,1006.031712
2023-05-22T04:52:32.000Z,1006.031712
2023-05-22T04:52:57.000Z,1006.133304
2023-05-22T04:53:22.000Z,1006.133304
2023-05-22T04:53:53.000Z,1006.133304
2023-05-22T04:54:27.000Z,1006.031712
2023-05-22T04:55:07.000Z,1005.93012
2023-05-22T04:55:30.000Z,1005.93012
2023-05-22T04:55:57.000Z,1005.93012
2023-05-22T04:56:27.000Z,1005.93012
2023-05-22T04:57:02.000Z,1005.93012
2023-05-22T04:57:25.000Z,1005.93012
2023-05-22T04:57:52.000Z,1005.93012
2023-05-22T04:58:27.000Z,1005.93012
2023-05-22T04:58:57.000Z,1005.93012
2023-05-22T04:59:27.000Z,1005.828528
2023-05-22T04:59:47.000Z,1005.828528
2023-05-22T05:00:17.000Z,1005.93012
2023-05-22T05:00:47.000Z,1005.93012
2023-05-22T05:01:09.000Z,1005.93012
2023-05-22T05:01:37.000Z,1005.93012
2023-05-22T05:01:58.000Z,1005.93012
2023-05-22T05:02:27.000Z,1005.93012
2023-05-22T05:02:57.000Z,1005.93012
2023-05-22T05:03:27.000Z,1005.828528
2023-05-22T05:04:02.000Z,1005.93012
2023-05-22T05:04:33.000Z,1005.93012
2023-05-22T05:04:57.000Z,1005.7269360000001
2023-05-22T05:05:22.000Z,1005.7269360000001
2023-05-22T05:05:52.000Z,1005.7269360000001
2023-05-22T05:06:27.000Z,1006.031712
2023-05-22T05:06:57.000Z,1006.031712